Time;durP1;ratioP1;P1;durP2;ratioP2;P2;SDS_P1;SDS_P2;PMS_P1;PMS_P2;Temp;Humidity;BMP_temperature;BMP_pressure;BME280_temperature;BME280_humidity;BME280_pressure;Samples;Min_cycle;Max_cycle;Signal;HPM_P1;HPM_P2
2022/06/12 00:01:17;;;;;;;4.97;1.95;;;20.70;99.90;;;;;;5033531;28;20255;-70
2022/06/12 00:03:46;;;;;;;3.10;2.30;;;20.70;99.90;;;;;;5007226;28;20201;-71
2022/06/12 00:06:16;;;;;;;4.82;2.30;;;20.60;99.90;;;;;;5026502;28;20521;-70
2022/06/12 00:08:44;;;;;;;4.13;2.28;;;20.60;99.90;;;;;;5008268;28;20259;-71
2022/06/12 00:11:19;;;;;;;2.88;1.95;;;20.60;99.90;;;;;;5014211;28;20260;-71
2022/06/12 00:13:49;;;;;;;4.40;2.10;;;20.60;99.90;;;;;;4996182;28;20210;-72
2022/06/12 00:16:20;;;;;;;4.43;2.13;;;20.60;99.90;;;;;;5014045;28;20259;-71
2022/06/12 00:18:49;;;;;;;3.47;2.00;;;20.60;99.90;;;;;;5014129;28;20643;-70
2022/06/12 00:21:18;;;;;;;2.25;1.75;;;20.50;99.90;;;;;;5013752;28;20240;-71
2022/06/12 00:23:49;;;;;;;2.90;1.88;;;20.50;99.90;;;;;;5019819;28;20247;-71
2022/06/12 00:26:19;;;;;;;2.70;1.90;;;20.50;99.90;;;;;;5024242;28;20258;-72
2022/06/12 00:28:47;;;;;;;4.10;2.65;;;20.40;99.90;;;;;;5032359;28;20605;-71
2022/06/12 00:31:15;;;;;;;4.65;2.50;;;20.40;99.90;;;;;;5032915;28;20243;-72
2022/06/12 00:33:44;;;;;;;7.20;2.97;;;20.40;99.90;;;;;;5032131;28;20208;-71
2022/06/12 00:36:12;;;;;;;2.95;2.22;;;20.30;99.90;;;;;;5032597;28;20228;-71
2022/06/12 00:38:40;;;;;;;3.72;2.10;;;20.30;99.90;;;;;;5030000;28;21599;-71
2022/06/12 00:41:08;;;;;;;5.95;2.10;;;20.30;99.90;;;;;;5028590;28;20267;-71
2022/06/12 00:43:37;;;;;;;3.70;2.15;;;20.20;99.90;;;;;;5031250;28;20227;-71
2022/06/12 00:46:06;;;;;;;6.55;2.50;;;20.10;99.90;;;;;;5032515;28;20677;-71
2022/06/12 00:48:37;;;;;;;1.95;1.85;;;20.10;99.90;;;;;;5032562;28;20205;-71
2022/06/12 00:51:12;;;;;;;2.92;2.63;;;20.10;99.90;;;;;;5032558;28;20239;-71
2022/06/12 00:53:44;;;;;;;4.22;2.33;;;20.00;99.90;;;;;;5020146;28;20616;-71
2022/06/12 00:56:16;;;;;;;4.20;2.40;;;20.00;99.90;;;;;;5025091;28;20232;-71
2022/06/12 00:58:48;;;;;;;2.95;2.05;;;19.90;99.90;;;;;;5032446;28;20212;-72
2022/06/12 01:01:21;;;;;;;3.53;2.10;;;19.90;99.90;;;;;;5032417;28;20678;-71
2022/06/12 01:06:36;;;;;;;3.30;2.15;;;19.80;99.90;;;;;;5032262;28;20263;-71
2022/06/12 01:09:10;;;;;;;2.45;2.10;;;19.80;99.90;;;;;;5032221;28;20584;-71
2022/06/12 01:11:40;;;;;;;4.03;2.75;;;19.70;99.90;;;;;;5032307;28;20209;-71
2022/06/12 01:14:13;;;;;;;2.58;2.38;;;19.70;99.90;;;;;;5018307;28;20209;-71
2022/06/12 01:16:45;;;;;;;3.67;2.03;;;19.70;99.90;;;;;;5027999;28;20256;-71
2022/06/12 01:19:34;;;;;;;3.50;2.15;;;19.60;99.90;;;;;;5031970;28;20228;-71
2022/06/12 01:22:34;;;;;;;1.83;1.70;;;19.60;99.90;;;;;;5029979;28;20232;-70
2022/06/12 01:25:18;;;;;;;2.05;1.85;;;19.60;99.90;;;;;;5016025;28;20286;-70
2022/06/12 01:28:05;;;;;;;2.80;2.00;;;19.50;99.90;;;;;;5006712;28;20229;-70
2022/06/12 01:30:38;;;;;;;4.75;2.63;;;19.50;99.90;;;;;;5009436;28;20304;-70
2022/06/12 01:33:21;;;;;;;2.45;2.13;;;19.50;99.90;;;;;;5012012;28;20746;-71
2022/06/12 01:35:55;;;;;;;2.55;1.80;;;19.50;99.90;;;;;;5013034;28;20209;-71
2022/06/12 01:38:34;;;;;;;2.55;2.35;;;19.50;99.90;;;;;;5012050;28;20316;-71
2022/06/12 01:41:08;;;;;;;3.08;2.78;;;19.40;99.90;;;;;;5006772;28;20205;-71
2022/06/12 01:43:47;;;;;;;5.65;2.40;;;19.40;99.90;;;;;;5011818;28;20252;-71
2022/06/12 01:46:19;;;;;;;2.83;2.63;;;19.40;99.90;;;;;;5012624;28;20674;-71
2022/06/12 01:48:55;;;;;;;2.70;2.50;;;19.30;99.90;;;;;;5012419;28;20205;-71
2022/06/12 01:51:28;;;;;;;2.58;2.38;;;19.20;99.90;;;;;;5012750;28;20205;-71
2022/06/12 01:54:03;;;;;;;3.20;2.40;;;19.10;99.90;;;;;;5014040;28;20258;-71
2022/06/12 01:56:38;;;;;;;2.28;2.05;;;19.10;99.90;;;;;;5026036;28;20232;-71
2022/06/12 01:59:14;;;;;;;2.75;2.55;;;19.00;99.90;;;;;;5006590;28;20212;-71
2022/06/12 02:01:48;;;;;;;3.55;2.60;;;19.00;99.90;;;;;;5012466;28;20221;-70
2022/06/12 02:04:21;;;;;;;3.63;2.88;;;18.90;99.90;;;;;;5011594;28;20296;-71
2022/06/12 02:06:54;;;;;;;2.97;2.50;;;18.90;99.90;;;;;;5012067;28;20849;-71
2022/06/12 02:09:28;;;;;;;5.80;2.05;;;18.90;99.90;;;;;;5012098;28;20737;-71
2022/06/12 02:14:50;;;;;;;2.95;2.15;;;18.80;99.90;;;;;;4994453;28;20209;-70
2022/06/12 02:17:30;;;;;;;3.15;2.70;;;18.70;99.90;;;;;;5012226;28;20233;-71
2022/06/12 02:19:58;;;;;;;2.63;2.42;;;18.60;99.90;;;;;;5012366;28;20256;-71
2022/06/12 02:22:29;;;;;;;2.53;2.22;;;18.50;99.90;;;;;;5010968;28;20721;-70
2022/06/12 02:25:00;;;;;;;4.78;2.85;;;18.40;99.90;;;;;;5023920;28;20698;-71
2022/06/12 02:27:34;;;;;;;3.72;2.78;;;18.30;99.90;;;;;;5027451;28;20248;-71
2022/06/12 02:30:11;;;;;;;4.47;3.17;;;18.30;99.90;;;;;;5030746;28;20203;-71
2022/06/12 02:32:45;;;;;;;2.85;1.67;;;18.20;99.90;;;;;;5030094;28;20258;-71
2022/06/12 02:35:21;;;;;;;5.28;3.80;;;18.20;99.90;;;;;;5030714;28;20196;-71
2022/06/12 02:37:52;;;;;;;5.53;2.92;;;18.10;99.90;;;;;;5005327;28;20221;-71
2022/06/12 02:40:25;;;;;;;3.13;2.58;;;18.10;99.90;;;;;;5024796;28;20646;-71
2022/06/12 02:42:56;;;;;;;2.28;1.85;;;18.00;99.90;;;;;;5030017;28;20243;-71
2022/06/12 02:45:29;;;;;;;4.00;2.40;;;18.00;99.90;;;;;;5030520;28;20200;-71
2022/06/12 02:47:59;;;;;;;5.78;2.58;;;18.00;99.90;;;;;;5030451;28;20224;-71
2022/06/12 02:50:35;;;;;;;3.60;3.30;;;18.00;99.90;;;;;;5030099;28;20626;-71
2022/06/12 02:53:10;;;;;;;5.82;2.58;;;18.00;99.90;;;;;;5020059;28;20635;-71
2022/06/12 02:55:44;;;;;;;4.72;2.85;;;18.10;99.90;;;;;;5019810;28;20457;-70
2022/06/12 02:58:18;;;;;;;3.50;3.20;;;18.00;99.90;;;;;;5022594;28;20271;-71
2022/06/12 03:00:52;;;;;;;4.68;3.20;;;18.00;99.90;;;;;;5030675;28;20248;-70
2022/06/12 03:03:26;;;;;;;3.08;2.75;;;18.00;99.90;;;;;;5030149;28;20239;-71
2022/06/12 03:05:58;;;;;;;4.05;3.10;;;18.00;99.90;;;;;;5030409;28;20514;-70
2022/06/12 03:08:30;;;;;;;2.63;2.53;;;18.00;99.90;;;;;;5030141;28;20240;-70
2022/06/12 03:11:01;;;;;;;3.85;3.10;;;18.00;99.90;;;;;;5030253;28;20201;-71
2022/06/12 03:13:32;;;;;;;2.72;2.53;;;18.00;99.90;;;;;;5028597;28;20236;-71
2022/06/12 03:16:10;;;;;;;2.78;2.58;;;18.00;99.90;;;;;;5030385;28;20255;-71
2022/06/12 03:18:44;;;;;;;5.10;3.15;;;17.90;99.90;;;;;;5030114;28;20209;-71
2022/06/12 03:21:22;;;;;;;5.78;2.60;;;17.90;99.90;;;;;;5030207;28;20267;-71
2022/06/12 03:24:20;;;;;;;4.50;2.35;;;17.90;99.90;;;;;;5017799;28;20196;-70
2022/06/12 03:26:58;;;;;;;2.55;2.20;;;18.00;99.90;;;;;;5025221;28;20243;-71
2022/06/12 03:29:35;;;;;;;3.42;2.60;;;18.00;99.90;;;;;;5029990;28;20288;-71
2022/06/12 03:32:15;;;;;;;3.03;2.75;;;18.00;99.90;;;;;;5016753;28;20740;-69
2022/06/12 03:34:51;;;;;;;3.67;2.70;;;18.10;99.90;;;;;;5011220;28;20198;-70
2022/06/12 03:37:27;;;;;;;4.72;2.45;;;18.10;99.90;;;;;;5011118;28;20248;-71
2022/06/12 03:40:03;;;;;;;2.45;2.13;;;18.10;99.90;;;;;;5010905;28;20311;-71
2022/06/12 03:42:36;;;;;;;2.97;2.60;;;18.00;99.90;;;;;;5010358;28;20255;-70
2022/06/12 03:45:10;;;;;;;2.75;2.28;;;18.00;99.90;;;;;;5011346;28;20205;-71
2022/06/12 03:47:45;;;;;;;6.03;2.40;;;18.00;99.90;;;;;;5010532;28;20782;-71
2022/06/12 03:50:20;;;;;;;2.45;2.25;;;17.90;99.90;;;;;;5004808;28;20197;-70
2022/06/12 03:52:54;;;;;;;5.75;1.75;;;18.00;99.90;;;;;;5010293;28;20224;-70
2022/06/12 03:58:17;;;;;;;2.13;2.00;;;17.90;99.90;;;;;;5039230;23;20654;-63
2022/06/12 04:00:49;;;;;;;2.20;2.00;;;17.90;99.90;;;;;;5019762;28;20323;-64
2022/06/12 04:03:20;;;;;;;3.55;2.17;;;17.90;99.90;;;;;;5011798;28;20205;-63
2022/06/12 04:05:53;;;;;;;5.70;2.33;;;18.00;99.90;;;;;;5013809;28;20210;-64
2022/06/12 04:08:39;;;;;;;3.75;1.70;;;18.10;99.90;;;;;;5008166;28;20583;-63
2022/06/12 04:11:09;;;;;;;2.40;1.90;;;18.10;99.90;;;;;;5013904;28;20221;-64
2022/06/12 04:13:38;;;;;;;3.65;1.75;;;18.20;99.90;;;;;;5013283;28;20240;-64
2022/06/12 04:16:20;;;;;;;2.28;2.05;;;18.30;99.90;;;;;;5013943;28;20626;-63
2022/06/12 04:18:49;;;;;;;3.42;1.60;;;18.40;99.90;;;;;;5013640;28;20222;-64
2022/06/12 04:21:26;;;;;;;3.28;2.15;;;18.40;99.90;;;;;;5013786;28;20279;-63
2022/06/12 04:24:06;;;;;;;2.40;1.60;;;18.50;99.90;;;;;;5012137;28;20201;-64
2022/06/12 04:26:38;;;;;;;2.63;1.90;;;18.60;99.90;;;;;;5009704;28;20213;-63
2022/06/12 04:29:22;;;;;;;3.03;2.30;;;18.60;99.90;;;;;;5013635;28;20209;-63
2022/06/12 04:31:51;;;;;;;2.65;1.67;;;18.60;99.90;;;;;;5013700;28;20229;-64
2022/06/12 04:34:23;;;;;;;4.93;2.03;;;18.70;99.90;;;;;;5012954;28;20283;-64
2022/06/12 04:36:55;;;;;;;4.32;2.00;;;18.80;99.90;;;;;;5013466;28;20288;-64
2022/06/12 04:39:27;;;;;;;3.55;1.83;;;18.80;99.90;;;;;;5013090;28;20202;-63
2022/06/12 04:41:56;;;;;;;2.70;2.13;;;18.80;99.90;;;;;;5012945;28;20218;-63
2022/06/12 04:44:25;;;;;;;4.55;2.20;;;18.90;99.90;;;;;;5013130;28;20304;-63
2022/06/12 04:46:56;;;;;;;3.72;2.05;;;18.90;99.90;;;;;;5013062;28;20224;-64
2022/06/12 04:49:27;;;;;;;3.00;1.50;;;19.00;99.90;;;;;;5013275;28;20209;-63
2022/06/12 04:51:58;;;;;;;4.13;1.90;;;19.00;99.90;;;;;;5012724;28;20312;-63
2022/06/12 04:54:28;;;;;;;1.92;1.75;;;19.00;99.90;;;;;;5012897;28;20730;-64
2022/06/12 04:56:57;;;;;;;2.78;2.22;;;19.10;99.90;;;;;;5012455;28;20253;-64
2022/06/12 04:59:25;;;;;;;6.40;2.85;;;19.20;99.90;;;;;;5010626;28;20209;-64
2022/06/12 05:01:53;;;;;;;3.45;1.70;;;19.20;99.90;;;;;;5006832;28;20320;-63
2022/06/12 05:04:25;;;;;;;2.67;1.70;;;19.30;99.90;;;;;;5006395;28;20201;-64
2022/06/12 05:06:53;;;;;;;5.30;2.45;;;19.30;99.90;;;;;;5007093;28;20733;-64
2022/06/12 05:09:25;;;;;;;2.72;1.75;;;19.40;99.90;;;;;;5012457;28;20228;-64
2022/06/12 05:11:53;;;;;;;2.45;2.13;;;19.40;99.90;;;;;;5012673;28;20666;-64
2022/06/12 05:14:22;;;;;;;2.10;1.55;;;19.50;99.90;;;;;;5011991;28;20260;-64
2022/06/12 05:16:53;;;;;;;4.43;2.22;;;19.50;99.90;;;;;;5012405;28;20209;-64
2022/06/12 05:19:24;;;;;;;3.85;2.45;;;19.60;99.90;;;;;;5012464;28;20225;-64
2022/06/12 05:21:53;;;;;;;5.95;2.42;;;19.70;99.90;;;;;;5012725;28;20302;-64
2022/06/12 05:24:22;;;;;;;3.08;2.10;;;19.80;99.90;;;;;;5007123;28;20193;-64
2022/06/12 05:26:52;;;;;;;3.38;2.08;;;19.90;99.90;;;;;;5012203;28;20628;-63
2022/06/12 05:29:24;;;;;;;1.98;1.40;;;20.00;99.90;;;;;;5011985;28;20259;-64
2022/06/12 05:31:52;;;;;;;6.50;2.47;;;20.00;99.90;;;;;;5012334;28;20197;-64
2022/06/12 05:34:21;;;;;;;3.17;2.13;;;20.10;99.90;;;;;;5012445;28;20205;-64
2022/06/12 05:36:49;;;;;;;6.85;2.45;;;20.20;99.90;;;;;;5012478;28;20674;-64
2022/06/12 05:39:17;;;;;;;5.30;2.15;;;20.20;99.90;;;;;;5012402;28;20550;-64
2022/06/12 05:41:46;;;;;;;2.50;1.85;;;20.20;99.90;;;;;;5012110;28;20209;-64
2022/06/12 05:44:15;;;;;;;4.38;2.42;;;20.20;99.90;;;;;;5011611;28;20268;-64
2022/06/12 05:46:43;;;;;;;3.55;2.38;;;20.30;99.90;;;;;;5012108;28;20204;-64
2022/06/12 05:49:12;;;;;;;2.35;2.00;;;20.40;99.90;;;;;;5011670;28;20205;-64
2022/06/12 05:51:43;;;;;;;6.03;2.28;;;20.40;99.90;;;;;;5012264;28;20678;-64
2022/06/12 05:54:11;;;;;;;2.88;1.90;;;20.50;99.90;;;;;;5007850;28;20227;-64
2022/06/12 05:56:40;;;;;;;4.28;2.25;;;20.60;99.90;;;;;;5011868;28;20214;-64
2022/06/12 05:59:09;;;;;;;3.10;2.55;;;20.80;99.90;;;;;;5010593;28;20237;-64
2022/06/12 06:01:40;;;;;;;3.42;2.25;;;20.90;99.90;;;;;;5008797;28;20698;-64
2022/06/12 06:04:08;;;;;;;3.03;1.98;;;21.10;99.90;;;;;;5011237;28;20228;-63
2022/06/12 06:06:41;;;;;;;3.25;2.00;;;21.20;99.90;;;;;;5011580;28;20621;-63
2022/06/12 06:09:11;;;;;;;2.55;1.60;;;21.30;99.90;;;;;;5011564;28;20216;-64
2022/06/12 06:11:39;;;;;;;4.53;2.38;;;21.50;99.90;;;;;;5012199;28;20240;-64
2022/06/12 06:14:09;;;;;;;3.15;1.80;;;21.50;99.90;;;;;;5011036;28;20236;-64
2022/06/12 06:16:38;;;;;;;7.80;1.95;;;21.60;99.90;;;;;;5008074;28;20213;-64
2022/06/12 06:19:06;;;;;;;2.83;2.00;;;21.70;99.90;;;;;;5005157;28;20247;-64
2022/06/12 06:21:34;;;;;;;4.45;2.17;;;21.80;99.90;;;;;;5005380;28;20217;-64
2022/06/12 06:24:05;;;;;;;2.75;1.65;;;21.90;99.90;;;;;;4989312;28;20240;-63
2022/06/12 06:26:33;;;;;;;5.85;2.20;;;22.10;99.90;;;;;;5010903;28;20240;-64
2022/06/12 06:29:01;;;;;;;4.47;2.00;;;22.10;99.90;;;;;;5009642;28;20255;-64
2022/06/12 06:31:30;;;;;;;4.70;2.00;;;22.20;99.90;;;;;;5011310;28;20288;-64
2022/06/12 06:33:58;;;;;;;2.33;1.50;;;22.30;99.90;;;;;;5005093;28;20197;-64
2022/06/12 06:36:26;;;;;;;3.83;2.10;;;22.40;99.90;;;;;;5011316;28;20280;-63
2022/06/12 06:38:56;;;;;;;4.00;1.70;;;22.50;99.90;;;;;;5011120;28;20647;-65
2022/06/12 06:41:25;;;;;;;3.00;1.63;;;22.60;99.90;;;;;;5011121;28;20263;-64
2022/06/12 06:46:41;;;;;;;5.35;2.30;;;22.90;99.90;;;;;;5011294;28;20212;-64
2022/06/12 06:49:09;;;;;;;3.03;1.95;;;23.00;99.90;;;;;;5011048;28;20623;-64
2022/06/12 06:51:37;;;;;;;3.58;2.05;;;22.90;99.90;;;;;;5011264;28;20296;-64
2022/06/12 06:54:05;;;;;;;3.03;1.80;;;23.00;99.90;;;;;;5010778;28;20225;-64
2022/06/12 06:56:34;;;;;;;4.22;1.95;;;23.20;99.90;;;;;;5010916;28;20197;-64
2022/06/12 06:59:02;;;;;;;3.08;1.77;;;23.30;99.90;;;;;;5010759;28;20276;-65
2022/06/12 07:01:30;;;;;;;5.35;1.95;;;23.60;99.90;;;;;;5010881;28;20213;-64
2022/06/12 07:03:59;;;;;;;3.50;1.85;;;23.70;99.90;;;;;;5010631;28;20271;-63
2022/06/12 07:06:27;;;;;;;3.40;1.88;;;23.80;99.90;;;;;;5011053;28;20618;-64
2022/06/12 07:08:56;;;;;;;4.63;2.15;;;23.80;99.90;;;;;;5010777;28;20694;-64
2022/06/12 07:11:25;;;;;;;3.63;2.10;;;23.90;99.90;;;;;;5010822;28;20237;-64
2022/06/12 07:13:56;;;;;;;4.53;1.75;;;24.10;99.90;;;;;;5008379;28;20228;-64
2022/06/12 07:16:25;;;;;;;3.50;1.75;;;24.20;99.90;;;;;;5010965;28;20662;-64
2022/06/12 07:18:53;;;;;;;4.45;1.75;;;24.40;99.90;;;;;;5010897;28;20664;-64
2022/06/12 07:21:23;;;;;;;4.15;1.77;;;24.40;99.90;;;;;;5010414;28;20197;-64
2022/06/12 07:23:50;;;;;;;4.82;1.70;;;24.50;99.90;;;;;;5009840;28;20240;-64
2022/06/12 07:26:22;;;;;;;4.60;2.10;;;24.40;99.90;;;;;;5010715;28;20255;-64
2022/06/12 07:28:51;;;;;;;6.47;2.20;;;24.30;99.90;;;;;;5010637;28;20225;-64
2022/06/12 07:31:20;;;;;;;4.10;2.00;;;24.30;99.90;;;;;;5010526;28;20256;-64
2022/06/12 07:33:48;;;;;;;2.53;1.98;;;24.20;99.90;;;;;;5010200;28;20201;-64
2022/06/12 07:36:17;;;;;;;3.20;1.77;;;24.20;99.90;;;;;;5011217;28;20197;-64
2022/06/12 07:38:48;;;;;;;5.00;1.60;;;24.40;99.90;;;;;;5013354;28;20305;-64
2022/06/12 07:41:37;;;;;;;3.33;1.67;;;24.60;99.90;;;;;;5014450;28;20211;-64
2022/06/12 07:44:06;;;;;;;5.00;1.65;;;24.80;99.90;;;;;;5013416;28;20197;-64
2022/06/12 07:46:34;;;;;;;3.00;2.33;;;24.90;99.90;;;;;;5014130;28;20197;-64
2022/06/12 07:49:02;;;;;;;6.95;1.83;;;24.90;99.90;;;;;;5014438;28;20229;-64
2022/06/12 07:51:30;;;;;;;6.95;2.22;;;24.90;99.90;;;;;;5014315;28;20225;-64
2022/06/12 07:54:00;;;;;;;3.50;2.03;;;25.10;99.90;;;;;;5011075;28;20650;-63
2022/06/12 07:56:28;;;;;;;6.43;2.30;;;25.10;99.90;;;;;;5014121;28;20260;-64
2022/06/12 07:58:56;;;;;;;2.70;1.77;;;25.20;99.90;;;;;;5013409;28;20291;-64
2022/06/12 08:01:27;;;;;;;5.93;1.92;;;25.30;99.90;;;;;;5013878;28;20221;-64
2022/06/12 08:03:56;;;;;;;3.20;1.88;;;25.50;99.90;;;;;;5013169;28;20220;-64
2022/06/12 08:06:24;;;;;;;5.35;2.20;;;25.70;99.90;;;;;;5014063;28;20202;-64
2022/06/12 08:08:52;;;;;;;5.25;1.90;;;25.60;99.90;;;;;;5013768;28;20247;-64
2022/06/12 08:11:22;;;;;;;4.18;1.95;;;25.70;99.90;;;;;;5013814;28;20239;-64
2022/06/12 08:13:50;;;;;;;2.60;1.30;;;25.80;99.90;;;;;;5012548;28;20259;-64
2022/06/12 08:16:18;;;;;;;4.80;1.77;;;25.90;99.90;;;;;;5013890;28;20205;-64
2022/06/12 08:18:46;;;;;;;5.45;2.42;;;25.90;99.90;;;;;;5013785;28;20722;-65
2022/06/12 08:21:16;;;;;;;4.10;1.88;;;26.10;99.90;;;;;;5013723;28;20209;-64
2022/06/12 08:23:49;;;;;;;2.28;1.63;;;26.30;99.90;;;;;;5012704;28;20267;-64
2022/06/12 08:26:20;;;;;;;6.55;2.35;;;26.40;99.90;;;;;;5013508;28;20228;-65
2022/06/12 08:28:52;;;;;;;2.72;1.60;;;26.60;99.90;;;;;;5013244;28;20225;-64
2022/06/12 08:31:23;;;;;;;4.90;2.10;;;26.60;99.90;;;;;;5013209;28;20631;-64
2022/06/12 08:33:56;;;;;;;3.20;1.70;;;26.80;99.90;;;;;;5012835;28;20211;-64
2022/06/12 08:36:25;;;;;;;3.45;1.95;;;26.90;99.90;;;;;;5013471;28;20209;-64
2022/06/12 08:38:53;;;;;;;4.18;2.10;;;26.90;99.90;;;;;;5013155;28;20280;-65
2022/06/12 08:41:33;;;;;;;3.60;2.17;;;26.90;99.90;;;;;;5013181;28;20205;-65
2022/06/12 08:44:11;;;;;;;3.47;1.80;;;26.80;99.90;;;;;;5012292;28;20213;-64
2022/06/12 08:46:45;;;;;;;4.30;2.15;;;27.00;99.90;;;;;;5013169;28;20205;-64
2022/06/12 08:49:23;;;;;;;3.90;1.80;;;27.20;99.90;;;;;;5012890;28;20658;-65
2022/06/12 08:51:58;;;;;;;4.00;2.00;;;27.10;99.90;;;;;;5013155;28;20228;-65
2022/06/12 08:54:30;;;;;;;7.90;2.40;;;27.10;99.90;;;;;;5015379;28;20666;-64
2022/06/12 08:57:05;;;;;;;4.20;1.88;;;27.20;99.70;;;;;;5012617;28;20237;-65
2022/06/12 08:59:38;;;;;;;3.63;2.00;;;27.40;99.90;;;;;;5012385;28;20247;-65
2022/06/12 09:02:13;;;;;;;4.80;1.60;;;27.60;99.90;;;;;;5012297;28;20205;-65
2022/06/12 09:04:42;;;;;;;5.25;1.92;;;27.90;99.90;;;;;;5012912;28;20300;-65
2022/06/12 09:07:15;;;;;;;3.28;1.70;;;28.10;98.80;;;;;;5012883;28;20271;-65
2022/06/12 09:09:49;;;;;;;3.90;1.98;;;28.20;98.70;;;;;;5012576;28;20197;-64
2022/06/12 09:12:20;;;;;;;3.83;1.80;;;28.30;97.80;;;;;;5012010;28;20204;-65
2022/06/12 09:15:01;;;;;;;5.00;1.92;;;28.30;98.20;;;;;;5012449;28;20292;-65
2022/06/12 09:17:49;;;;;;;3.75;1.50;;;28.50;97.80;;;;;;5012584;28;20725;-65
2022/06/12 09:20:30;;;;;;;3.38;1.98;;;28.70;98.10;;;;;;5006115;28;20656;-65
2022/06/12 09:23:08;;;;;;;2.60;1.95;;;29.20;97.50;;;;;;5007164;28;20279;-65
2022/06/12 09:25:51;;;;;;;4.25;2.10;;;29.60;98.00;;;;;;5009277;28;20301;-65
2022/06/12 09:28:30;;;;;;;3.90;1.80;;;29.90;96.60;;;;;;5012449;28;20225;-65
2022/06/12 09:31:05;;;;;;;4.63;2.25;;;30.20;96.30;;;;;;5006263;28;20269;-65
2022/06/12 09:33:43;;;;;;;2.90;2.20;;;30.40;96.40;;;;;;5011812;28;20197;-65
2022/06/12 09:36:26;;;;;;;3.05;1.70;;;30.50;96.50;;;;;;5012408;28;20240;-65
2022/06/12 09:39:04;;;;;;;3.85;1.52;;;30.40;95.90;;;;;;5012295;28;20272;-65
2022/06/12 09:41:43;;;;;;;4.35;1.67;;;30.50;95.40;;;;;;5011856;28;20201;-65
2022/06/12 09:44:16;;;;;;;3.90;2.50;;;30.70;95.40;;;;;;5005472;28;20312;-65
2022/06/12 09:47:03;;;;;;;1.70;1.60;;;30.90;94.90;;;;;;5006687;28;20240;-65
2022/06/12 09:50:01;;;;;;;3.65;2.22;;;31.20;94.30;;;;;;5012036;28;20237;-66
2022/06/12 09:52:53;;;;;;;2.95;1.50;;;30.70;94.60;;;;;;5011339;28;20258;-65
2022/06/12 09:55:26;;;;;;;6.13;2.10;;;30.90;94.60;;;;;;5011550;28;20305;-65
2022/06/12 09:58:00;;;;;;;1.98;1.35;;;30.90;94.60;;;;;;5027505;23;20687;-74
2022/06/12 10:00:37;;;;;;;2.85;1.77;;;31.00;94.20;;;;;;5000536;28;20221;-74
2022/06/12 10:03:13;;;;;;;3.22;1.70;;;30.90;93.60;;;;;;4986033;28;20217;-74
2022/06/12 10:05:47;;;;;;;3.85;1.52;;;30.90;93.80;;;;;;4987156;28;20646;-74
2022/06/12 10:08:26;;;;;;;3.95;1.60;;;31.00;93.30;;;;;;4992506;28;20234;-75
2022/06/12 10:10:58;;;;;;;3.60;1.70;;;31.30;92.70;;;;;;4991532;28;20206;-74
2022/06/12 10:13:32;;;;;;;2.17;1.60;;;31.30;93.10;;;;;;4991520;28;20202;-74
2022/06/12 10:16:03;;;;;;;6.95;2.03;;;31.60;92.10;;;;;;4991854;28;20224;-74
2022/06/12 10:18:40;;;;;;;3.92;1.73;;;31.90;92.70;;;;;;4992106;28;20280;-74
2022/06/12 10:21:11;;;;;;;6.47;2.20;;;31.90;91.90;;;;;;4991818;28;20202;-74
2022/06/12 10:23:39;;;;;;;3.90;1.60;;;31.80;93.00;;;;;;4991284;28;20304;-74
2022/06/12 10:26:17;;;;;;;3.07;2.37;;;32.20;91.70;;;;;;4991361;28;20237;-74
2022/06/12 10:28:45;;;;;;;4.77;2.50;;;32.40;91.00;;;;;;4989138;28;21201;-74
2022/06/12 10:31:20;;;;;;;2.43;1.60;;;32.60;92.50;;;;;;4991656;28;20659;-74
2022/06/12 10:33:53;;;;;;;3.47;1.63;;;32.40;90.40;;;;;;4990939;28;20612;-74
2022/06/12 10:36:25;;;;;;;3.90;1.50;;;32.60;89.50;;;;;;4991764;28;20617;-74
2022/06/12 10:39:06;;;;;;;4.13;1.70;;;32.90;90.00;;;;;;4991603;28;20656;-74
2022/06/12 10:41:41;;;;;;;2.07;1.57;;;32.50;90.30;;;;;;4991260;28;20616;-74
2022/06/12 10:44:28;;;;;;;5.13;1.60;;;33.00;90.60;;;;;;4990948;28;20768;-74
2022/06/12 10:46:56;;;;;;;4.37;2.13;;;33.30;89.50;;;;;;4991649;28;20675;-75
2022/06/12 10:49:25;;;;;;;2.97;2.30;;;32.70;90.10;;;;;;4990900;28;20692;-74
2022/06/12 10:52:05;;;;;;;2.20;1.80;;;32.70;88.00;;;;;;4991433;28;20617;-74
2022/06/12 10:54:37;;;;;;;4.70;2.07;;;32.30;89.30;;;;;;4991331;28;20639;-74
2022/06/12 10:57:15;;;;;;;5.20;1.70;;;32.10;88.20;;;;;;4991329;28;20636;-75
2022/06/12 10:59:51;;;;;;;2.50;1.70;;;31.60;88.40;;;;;;4991894;28;20675;-74
2022/06/12 11:02:53;;;;;;;2.37;1.70;;;31.40;89.50;;;;;;4990696;28;20664;-74
2022/06/12 11:05:44;;;;;;;4.80;2.38;;;31.60;89.10;;;;;;4974031;28;20672;-73
2022/06/12 11:08:29;;;;;;;3.40;1.75;;;31.40;88.70;;;;;;4991288;28;20695;-74
2022/06/12 11:11:06;;;;;;;1.93;1.63;;;31.20;87.20;;;;;;4991169;28;20210;-72
2022/06/12 11:13:51;;;;;;;1.95;1.42;;;31.50;85.20;;;;;;4994861;28;21213;-74
2022/06/12 11:16:28;;;;;;;1.80;1.43;;;31.60;87.30;;;;;;4995380;28;20608;-73
2022/06/12 11:19:17;;;;;;;4.70;1.65;;;32.00;86.30;;;;;;4995062;28;20660;-74
2022/06/12 11:21:55;;;;;;;2.90;1.67;;;32.00;85.10;;;;;;4995021;28;20202;-74
2022/06/12 11:24:27;;;;;;;2.92;1.35;;;32.00;83.10;;;;;;4992277;28;20213;-74
2022/06/12 11:27:22;;;;;;;2.35;1.20;;;32.10;85.10;;;;;;4995311;28;20614;-74
2022/06/12 11:30:10;;;;;;;4.85;2.15;;;32.20;82.50;;;;;;4992949;28;20244;-75
2022/06/12 11:32:49;;;;;;;2.10;1.23;;;32.40;83.00;;;;;;4994592;28;20201;-75
2022/06/12 11:35:32;;;;;;;2.20;1.53;;;32.30;83.00;;;;;;4994927;28;20708;-74
2022/06/12 11:38:16;;;;;;;4.67;2.10;;;32.40;84.30;;;;;;4995064;28;20648;-74
2022/06/12 11:40:51;;;;;;;2.40;1.30;;;32.70;82.50;;;;;;4994777;28;20643;-74
2022/06/12 11:43:25;;;;;;;4.10;1.57;;;32.40;83.50;;;;;;4994108;28;20206;-74
2022/06/12 11:46:17;;;;;;;2.67;1.93;;;32.20;84.60;;;;;;4994842;28;21007;-74
2022/06/12 11:49:16;;;;;;;2.90;1.60;;;32.50;83.30;;;;;;4994915;28;20658;-74
2022/06/12 11:51:53;;;;;;;4.17;2.00;;;32.70;82.30;;;;;;4994647;28;21108;-74
2022/06/12 11:54:43;;;;;;;3.43;1.63;;;32.90;82.40;;;;;;4994183;28;20612;-74
2022/06/12 11:57:21;;;;;;;2.00;1.20;;;32.90;80.90;;;;;;4990838;28;21185;-74
2022/06/12 12:00:03;;;;;;;3.20;1.63;;;32.90;80.80;;;;;;4994700;28;20640;-74
2022/06/12 12:02:56;;;;;;;3.00;1.60;;;33.00;81.00;;;;;;4993851;28;20640;-75
2022/06/12 12:05:50;;;;;;;2.47;1.50;;;32.90;81.00;;;;;;4994555;28;20656;-74
2022/06/12 12:08:31;;;;;;;2.93;1.53;;;32.50;80.60;;;;;;4994572;28;20771;-75
2022/06/12 12:11:07;;;;;;;2.30;1.43;;;32.50;81.50;;;;;;4994580;28;20683;-73
2022/06/12 12:13:42;;;;;;;3.07;1.30;;;32.60;80.50;;;;;;4993699;28;20711;-74
2022/06/12 12:16:24;;;;;;;2.17;1.47;;;32.60;81.20;;;;;;4994208;28;20616;-74
2022/06/12 12:18:57;;;;;;;2.57;1.03;;;33.00;80.40;;;;;;4994040;28;20989;-74
2022/06/12 12:21:31;;;;;;;2.30;1.30;;;33.50;79.00;;;;;;4994153;28;20592;-74
2022/06/12 12:24:01;;;;;;;3.73;1.50;;;33.50;76.80;;;;;;4992486;28;20620;-74
2022/06/12 12:26:35;;;;;;;4.33;1.53;;;33.40;78.10;;;;;;4996068;28;21271;-74
2022/06/12 12:29:06;;;;;;;3.00;1.50;;;33.40;77.30;;;;;;4988114;28;20684;-75
2022/06/12 12:31:34;;;;;;;3.57;1.53;;;33.80;77.40;;;;;;4993993;28;20644;-74
2022/06/12 12:34:04;;;;;;;1.50;1.20;;;34.00;76.20;;;;;;4993308;28;20981;-74
2022/06/12 12:42:29;;;;;;;1.77;1.07;;;33.90;75.10;;;;;;4992999;28;20632;-75
2022/06/12 12:45:10;;;;;;;2.10;1.10;;;33.70;72.40;;;;;;4993851;28;21249;-74
2022/06/12 12:47:38;;;;;;;1.33;1.03;;;33.20;73.70;;;;;;4993783;28;20679;-74
2022/06/12 12:50:10;;;;;;;1.80;1.13;;;32.60;75.20;;;;;;4993776;28;20616;-74
2022/06/12 12:52:45;;;;;;;1.87;1.10;;;33.00;75.60;;;;;;4992830;28;20719;-74
2022/06/12 12:55:24;;;;;;;2.10;1.13;;;33.40;74.40;;;;;;4993776;28;20624;-74
2022/06/12 12:57:54;;;;;;;2.53;1.40;;;33.60;71.40;;;;;;4991564;28;20704;-74
2022/06/12 13:00:28;;;;;;;2.13;1.10;;;34.00;73.30;;;;;;4993414;28;21011;-74
2022/06/12 13:02:57;;;;;;;1.47;0.90;;;34.30;71.20;;;;;;4992777;28;20613;-73
2022/06/12 13:05:32;;;;;;;1.67;0.90;;;34.60;69.30;;;;;;4993181;28;20721;-75
2022/06/12 13:08:17;;;;;;;1.67;1.17;;;34.30;69.70;;;;;;4975652;28;21233;-74
2022/06/12 13:11:05;;;;;;;2.13;1.23;;;34.00;69.30;;;;;;4993130;28;21190;-74
2022/06/12 13:13:59;;;;;;;2.10;1.50;;;33.80;70.80;;;;;;4992315;28;20711;-74
2022/06/12 13:16:39;;;;;;;3.90;1.63;;;34.10;70.20;;;;;;4993336;28;20612;-74
2022/06/12 13:19:26;;;;;;;1.93;1.17;;;33.50;71.80;;;;;;4992940;28;21019;-74
2022/06/12 13:22:10;;;;;;;1.33;1.00;;;33.60;71.60;;;;;;4992947;28;20670;-74
2022/06/12 13:24:42;;;;;;;1.40;1.27;;;33.80;69.70;;;;;;4992877;28;20653;-75
2022/06/12 13:27:20;;;;;;;1.93;1.20;;;34.10;69.10;;;;;;4993042;28;20991;-74
2022/06/12 13:29:52;;;;;;;2.70;1.10;;;34.00;67.70;;;;;;4992764;28;20679;-74
2022/06/12 13:32:25;;;;;;;1.40;1.03;;;34.20;67.80;;;;;;4991915;28;20991;-75
2022/06/12 13:35:29;;;;;;;3.00;1.40;;;34.50;66.10;;;;;;4988408;28;20633;-75
2022/06/12 13:38:02;;;;;;;2.43;1.10;;;34.40;66.20;;;;;;4993005;28;20660;-74
2022/06/12 13:40:33;;;;;;;2.47;1.40;;;34.50;63.90;;;;;;4992598;28;21184;-74